createdAt,value
2018-10-19T00:00:00.272Z,88.80
2018-10-19T00:01:00.205Z,87.66
2018-10-19T00:02:00.112Z,88.33
2018-10-19T00:03:00.084Z,89.56
2018-10-19T00:03:59.953Z,89.47
2018-10-19T00:04:59.912Z,89.37
2018-10-19T00:05:59.794Z,87.85
2018-10-19T00:06:59.728Z,87.28
2018-10-19T00:07:59.643Z,86.24
2018-10-19T00:08:59.601Z,87.09
2018-10-19T00:09:59.482Z,87.09
2018-10-19T00:10:59.441Z,87.47
2018-10-19T00:11:59.323Z,86.99
2018-10-19T00:12:59.265Z,87.66
2018-10-19T00:13:59.166Z,88.33
2018-10-19T00:14:59.126Z,88.71
2018-10-19T00:15:59.008Z,88.52
2018-10-19T00:16:58.968Z,87.28
2018-10-19T00:17:58.853Z,86.24
2018-10-19T00:18:58.782Z,87.09
2018-10-19T00:19:58.687Z,86.61
2018-10-19T00:20:58.619Z,86.00
2018-10-19T00:21:58.529Z,87.24
2018-10-19T00:22:58.479Z,85.91
2018-10-19T00:23:58.374Z,85.43
2018-10-19T00:24:58.302Z,86.47
2018-10-19T00:25:58.215Z,86.95
2018-10-19T00:26:58.152Z,87.71
2018-10-19T00:27:58.062Z,87.81
2018-10-19T00:28:58.045Z,89.61
2018-10-19T00:29:57.900Z,90.75
2018-10-19T00:30:57.829Z,91.80
2018-10-19T00:31:57.763Z,91.99
2018-10-19T00:32:57.678Z,91.61
2018-10-19T00:33:57.580Z,91.23
2018-10-19T00:34:57.511Z,90.75
2018-10-19T00:35:57.424Z,90.66
2018-10-19T00:36:57.355Z,91.52
2018-10-19T00:37:57.268Z,92.75
2018-10-19T00:38:57.213Z,90.75
2018-10-19T00:39:57.106Z,89.04
2018-10-19T00:40:57.080Z,90.47
2018-10-19T00:41:56.947Z,90.28
2018-10-19T00:42:56.875Z,89.28
2018-10-19T00:43:56.791Z,87.81
2018-10-19T00:44:56.724Z,87.81
2018-10-19T00:45:56.627Z,88.09
2018-10-19T00:46:56.612Z,87.81
2018-10-19T00:47:56.473Z,87.14
2018-10-19T00:48:56.399Z,87.71
2018-10-19T00:49:56.317Z,86.95
2018-10-19T00:50:56.258Z,86.76
2018-10-19T00:51:56.154Z,86.29
2018-10-19T00:52:56.128Z,86.29
2018-10-19T00:53:55.998Z,86.00
2018-10-19T00:54:55.923Z,86.95
2018-10-19T00:55:55.840Z,88.38
2018-10-19T00:56:55.777Z,89.42
2018-10-19T00:57:55.684Z,90.61
2018-10-19T00:58:55.632Z,91.38
2018-10-19T00:59:55.521Z,90.99
2018-10-19T01:00:55.450Z,90.71
2018-10-19T01:01:55.361Z,90.42
2018-10-19T01:02:55.306Z,92.42
2018-10-19T01:03:55.207Z,94.03
2018-10-19T01:04:55.149Z,94.56
2018-10-19T01:05:55.047Z,97.69
2018-10-19T01:06:54.976Z,98.26
2018-10-19T01:07:54.886Z,97.50
2018-10-19T01:08:54.818Z,94.37
2018-10-19T01:09:54.729Z,92.66
2018-10-19T01:10:54.695Z,90.47
2018-10-19T01:11:54.567Z,88.38
2018-10-19T01:12:54.496Z,88.19
2018-10-19T01:13:54.408Z,88.76
2018-10-19T01:14:54.361Z,88.85
2018-10-19T01:15:54.247Z,88.28
2018-10-19T01:16:54.187Z,87.48
2018-10-19T01:17:54.094Z,88.24
2018-10-19T01:18:54.021Z,88.62
2018-10-19T01:19:53.928Z,90.61
2018-10-19T01:20:53.892Z,93.27
2018-10-19T01:21:53.771Z,93.84
2018-10-19T01:22:53.699Z,91.38
2018-10-19T01:23:53.612Z,89.76
2018-10-19T01:24:53.545Z,88.90
2018-10-19T01:25:53.451Z,88.34
2018-10-19T01:26:53.389Z,89.00
2018-10-19T01:27:53.294Z,89.00
2018-10-19T01:28:53.231Z,89.19
2018-10-19T01:29:53.135Z,89.47
2018-10-19T01:30:53.068Z,88.81
2018-10-19T01:31:52.981Z,89.00
2018-10-19T01:32:52.956Z,88.62
2018-10-19T01:33:52.818Z,86.67
2018-10-19T01:34:52.783Z,85.20
2018-10-19T01:35:52.662Z,85.39
2018-10-19T01:36:52.583Z,85.39
2018-10-19T01:37:52.500Z,86.34
2018-10-19T01:38:52.462Z,86.34
2018-10-19T01:39:52.339Z,86.43
2018-10-19T01:40:52.296Z,86.34
2018-10-19T01:41:52.185Z,87.01
2018-10-19T01:42:52.111Z,86.72
2018-10-19T01:43:52.023Z,86.82
2018-10-19T01:44:51.953Z,87.29
2018-10-19T01:45:51.870Z,87.67
2018-10-19T01:46:51.791Z,89.57
2018-10-19T01:47:51.705Z,91.66
2018-10-19T01:48:51.632Z,93.46
2018-10-19T01:49:51.550Z,93.37
2018-10-19T01:50:51.483Z,92.37
2018-10-19T01:51:51.399Z,91.80
2018-10-19T01:52:51.311Z,92.75
2018-10-19T01:53:51.225Z,94.65
2018-10-19T01:54:51.149Z,96.36
2018-10-19T01:55:51.071Z,96.84
2018-10-19T01:56:50.997Z,96.55
2018-10-19T01:57:50.910Z,95.60
2018-10-19T01:58:50.833Z,94.08
2018-10-19T01:59:50.751Z,90.56
2018-10-19T02:00:50.676Z,86.72
2018-10-19T02:01:50.593Z,86.15
2018-10-19T02:02:50.519Z,86.63
2018-10-19T02:03:50.427Z,87.19
2018-10-19T02:04:50.360Z,88.24
2018-10-19T02:05:50.267Z,88.43
2018-10-19T02:06:50.206Z,89.38
2018-10-19T02:07:50.111Z,90.23
2018-10-19T02:08:50.037Z,89.76
2018-10-19T02:09:49.954Z,90.42
2018-10-19T02:10:49.892Z,90.90
2018-10-19T02:11:49.792Z,90.52
2018-10-19T02:12:49.720Z,89.76
2018-10-19T02:13:49.633Z,89.76
2018-10-19T02:14:49.563Z,89.86
2018-10-19T02:15:49.471Z,90.33
2018-10-19T02:16:49.403Z,90.80
2018-10-19T02:17:49.320Z,91.66
2018-10-19T02:18:49.242Z,91.47
2018-10-19T02:19:49.161Z,92.51
2018-10-19T02:20:49.080Z,92.32
2018-10-19T02:21:48.998Z,91.38
2018-10-19T02:22:48.926Z,91.09
2018-10-19T02:23:48.834Z,91.56
2018-10-19T02:24:48.765Z,91.47
2018-10-19T02:25:48.676Z,93.18
2018-10-19T02:26:48.604Z,94.89
2018-10-19T02:27:48.517Z,96.69
2018-10-19T02:28:48.448Z,98.59
2018-10-19T02:29:48.358Z,99.99
2018-10-19T02:30:48.286Z,99.99
2018-10-19T02:31:48.192Z,99.99
2018-10-19T02:32:48.133Z,99.99
2018-10-19T02:33:48.040Z,99.99
2018-10-19T02:34:47.970Z,99.99
2018-10-19T02:35:47.879Z,98.88
2018-10-19T02:36:47.813Z,94.32
2018-10-19T02:37:47.719Z,93.27
2018-10-19T02:38:47.652Z,93.18
2018-10-19T02:39:47.562Z,94.32
2018-10-19T02:40:47.488Z,96.60
2018-10-19T02:41:47.401Z,98.59
2018-10-19T02:42:47.335Z,98.21
2018-10-19T02:43:47.243Z,98.02
2018-10-19T02:44:47.166Z,94.23
2018-10-19T02:45:47.082Z,91.38
2018-10-19T02:46:47.007Z,88.15
2018-10-19T02:47:46.922Z,86.63
2018-10-19T02:48:46.847Z,86.82
2018-10-19T02:49:46.767Z,88.01
2018-10-19T02:50:46.689Z,89.33
2018-10-19T02:51:46.601Z,90.38
2018-10-19T02:52:46.538Z,91.71
2018-10-19T02:53:46.441Z,93.89
2018-10-19T02:54:46.373Z,99.40
2018-10-19T02:55:46.282Z,99.99
2018-10-19T02:56:46.213Z,99.99
2018-10-19T02:57:46.122Z,99.99
2018-10-19T02:58:46.052Z,99.99
2018-10-19T02:59:45.978Z,99.83
2018-10-19T03:00:45.899Z,97.55
2018-10-19T03:01:45.804Z,94.08
2018-10-19T03:02:45.732Z,92.94
2018-10-19T03:03:45.645Z,93.75
2018-10-19T03:04:45.573Z,93.99
2018-10-19T03:05:45.483Z,93.70
2018-10-19T03:06:45.411Z,93.13
2018-10-19T03:07:45.321Z,92.37
2018-10-19T03:08:45.254Z,91.89
2018-10-19T03:09:45.166Z,92.32
2018-10-19T03:10:45.098Z,92.42
2018-10-19T03:11:45.092Z,91.14
2018-10-19T03:12:44.937Z,90.57
2018-10-19T03:13:44.844Z,91.04
2018-10-19T03:14:44.777Z,93.32
2018-10-19T03:15:44.684Z,96.22
2018-10-19T03:16:44.610Z,97.92
2018-10-19T03:17:44.527Z,98.50
2018-10-19T03:18:44.456Z,98.73
2018-10-19T03:19:44.366Z,99.99
2018-10-19T03:20:44.294Z,99.99
2018-10-19T03:21:44.206Z,99.99
2018-10-19T03:22:44.134Z,99.99
2018-10-19T03:23:44.045Z,99.99
2018-10-19T03:24:43.972Z,99.99
2018-10-19T03:25:43.888Z,99.99
2018-10-19T03:26:43.817Z,99.99
2018-10-19T03:27:43.726Z,99.99
2018-10-19T03:28:43.657Z,99.99
2018-10-19T03:29:43.569Z,99.99
2018-10-19T03:30:43.545Z,99.99
2018-10-19T03:31:43.419Z,96.12
2018-10-19T03:32:43.341Z,92.47
2018-10-19T03:33:43.243Z,91.42
2018-10-19T03:34:43.173Z,92.09
2018-10-19T03:35:43.086Z,90.57
2018-10-19T03:36:43.011Z,90.00
2018-10-19T03:37:42.925Z,90.19
2018-10-19T03:38:42.874Z,90.95
2018-10-19T03:39:43.353Z,91.52
2018-10-19T03:40:42.784Z,93.32
2018-10-19T03:41:42.607Z,94.18
2018-10-19T03:42:42.599Z,96.45
2018-10-19T03:43:42.458Z,98.54
2018-10-19T03:44:42.417Z,99.30
2018-10-19T03:45:42.284Z,99.99
2018-10-19T03:46:42.221Z,99.99
2018-10-19T03:47:42.128Z,99.99
2018-10-19T03:48:42.122Z,97.22
2018-10-19T03:49:41.965Z,93.70
2018-10-19T03:50:41.932Z,91.80
2018-10-19T03:51:41.806Z,92.47
2018-10-19T03:52:41.846Z,93.04
2018-10-19T03:53:41.650Z,93.94
2018-10-19T03:54:41.650Z,93.99
2018-10-19T03:55:41.486Z,95.51
2018-10-19T03:56:41.413Z,97.60
2018-10-19T03:57:41.329Z,99.99
2018-10-19T03:58:41.265Z,99.99
2018-10-19T03:59:41.168Z,99.99
2018-10-19T04:00:41.180Z,99.99
2018-10-19T04:01:41.015Z,99.99
2018-10-19T04:02:40.990Z,99.77
2018-10-19T04:03:40.869Z,97.97
2018-10-19T04:04:40.796Z,94.74
2018-10-19T04:05:40.688Z,93.51
2018-10-19T04:06:40.704Z,93.99
2018-10-19T04:07:40.527Z,94.65
2018-10-19T04:08:40.512Z,94.93
2018-10-19T04:09:40.364Z,95.31
2018-10-19T04:10:40.328Z,96.45
2018-10-19T04:11:40.202Z,98.35
2018-10-19T04:12:40.237Z,99.11
2018-10-19T04:13:40.047Z,99.99
2018-10-19T04:14:40.047Z,99.49
2018-10-19T04:15:39.884Z,99.99
2018-10-19T04:16:39.853Z,99.99
2018-10-19T04:17:39.733Z,99.99
2018-10-19T04:18:39.791Z,99.99
2018-10-19T04:19:39.564Z,99.99
2018-10-19T04:20:39.496Z,99.99
2018-10-19T04:21:39.403Z,99.99
2018-10-19T04:22:39.380Z,99.99
2018-10-19T04:23:39.252Z,99.99
2018-10-19T04:24:39.175Z,99.99
2018-10-19T04:25:39.088Z,99.99
2018-10-19T04:26:39.098Z,99.49
2018-10-19T04:27:38.992Z,97.22
2018-10-19T04:28:38.908Z,95.22
2018-10-19T04:29:38.774Z,94.46
2018-10-19T04:30:38.719Z,93.80
2018-10-19T04:31:38.639Z,93.13
2018-10-19T04:32:38.626Z,92.37
2018-10-19T04:33:38.442Z,91.33
2018-10-19T04:34:38.374Z,91.04
2018-10-19T04:35:38.290Z,90.76
2018-10-19T04:36:38.212Z,90.00
2018-10-19T04:37:38.127Z,91.04
2018-10-19T04:38:38.157Z,91.56
2018-10-19T04:39:37.965Z,92.52
2018-10-19T04:40:38.993Z,93.99
2018-10-19T04:41:37.920Z,94.18
2018-10-19T04:42:37.770Z,94.13
2018-10-19T04:43:37.637Z,95.12
2018-10-19T04:44:37.584Z,96.69
2018-10-19T04:45:37.479Z,97.22
2018-10-19T04:46:37.493Z,98.35
2018-10-19T04:47:37.364Z,97.78
2018-10-19T04:48:37.297Z,97.12
2018-10-19T04:49:37.163Z,97.97
2018-10-19T04:50:37.113Z,98.64
2018-10-19T04:51:36.998Z,97.60
2018-10-19T04:52:37.032Z,96.36
2018-10-19T04:53:36.911Z,95.79
2018-10-19T04:54:36.840Z,95.41
2018-10-19T04:55:36.678Z,95.60
2018-10-19T04:56:36.635Z,96.36
2018-10-19T04:57:36.516Z,98.16
2018-10-19T04:58:36.550Z,99.99
2018-10-19T04:59:36.571Z,99.99
2018-10-19T05:00:36.358Z,98.26
2018-10-19T05:01:36.197Z,93.89
2018-10-19T05:02:36.245Z,90.57
2018-10-19T05:03:36.051Z,88.81
2018-10-19T05:04:36.027Z,88.72
2018-10-19T05:05:35.877Z,89.76
2018-10-19T05:06:35.956Z,90.52
2018-10-19T05:07:35.715Z,91.94
2018-10-19T05:08:35.698Z,92.85
2018-10-19T05:09:35.557Z,93.80
2018-10-19T05:10:35.502Z,94.27
2018-10-19T05:11:35.396Z,94.93
2018-10-19T05:12:35.513Z,96.17
2018-10-19T05:13:35.235Z,95.98
2018-10-19T05:14:35.225Z,95.79
2018-10-19T05:15:35.076Z,96.36
2018-10-19T05:16:35.030Z,97.12
2018-10-19T05:17:34.912Z,97.88
2018-10-19T05:18:34.997Z,98.68
2018-10-19T05:19:34.759Z,99.99
2018-10-19T05:20:34.759Z,99.99
2018-10-19T05:21:34.590Z,99.99
2018-10-19T05:22:34.575Z,97.17
2018-10-19T05:23:34.438Z,95.27
2018-10-19T05:24:34.379Z,93.84
2018-10-19T05:25:34.272Z,93.56
2018-10-19T05:26:34.195Z,94.03
2018-10-19T05:27:34.111Z,94.79
2018-10-19T05:28:34.034Z,95.84
2018-10-19T05:29:33.948Z,95.17
2018-10-19T05:30:33.874Z,93.56
2018-10-19T05:31:33.784Z,93.08
2018-10-19T05:32:33.719Z,92.52
2018-10-19T05:33:33.775Z,93.08
2018-10-19T05:34:33.555Z,94.60
2018-10-19T05:35:33.467Z,95.55
2018-10-19T05:36:33.395Z,98.49
2018-10-19T05:37:33.312Z,99.35
2018-10-19T05:38:33.232Z,99.63
2018-10-19T05:39:33.142Z,96.97
2018-10-19T05:40:33.086Z,98.11
2018-10-19T05:41:32.983Z,98.21
2018-10-19T05:42:32.910Z,96.12
2018-10-19T05:43:32.873Z,93.08
2018-10-19T05:44:32.749Z,91.85
2018-10-19T05:45:32.661Z,91.85
2018-10-19T05:46:32.585Z,93.46
2018-10-19T05:47:32.499Z,94.23
2018-10-19T05:48:32.426Z,95.07
2018-10-19T05:49:32.340Z,95.74
2018-10-19T05:50:32.268Z,97.26
2018-10-19T05:51:32.177Z,96.41
2018-10-19T05:52:32.104Z,95.74
2018-10-19T05:53:32.017Z,95.46
2018-10-19T05:54:31.945Z,94.89
2018-10-19T05:55:31.857Z,93.75
2018-10-19T05:56:31.791Z,93.84
2018-10-19T05:57:31.695Z,95.46
2018-10-19T05:58:32.369Z,96.88
2018-10-19T05:59:31.536Z,96.31
2018-10-19T06:00:31.463Z,95.93
2018-10-19T06:01:31.374Z,94.51
2018-10-19T06:02:31.392Z,93.84
2018-10-19T06:03:31.217Z,94.89
2018-10-19T06:04:31.152Z,95.17
2018-10-19T06:05:31.052Z,95.46
2018-10-19T06:06:30.983Z,95.93
2018-10-19T06:07:30.898Z,97.74
2018-10-19T06:08:30.809Z,98.49
2018-10-19T06:09:30.778Z,98.30
2018-10-19T06:10:30.646Z,97.74
2018-10-19T06:11:30.584Z,97.36
2018-10-19T06:12:30.485Z,97.26
2018-10-19T06:13:30.473Z,96.50
2018-10-19T06:14:30.334Z,96.78
2018-10-19T06:15:30.284Z,95.07
2018-10-19T06:16:30.168Z,95.74
2018-10-19T06:17:30.487Z,96.22
2018-10-19T06:18:30.938Z,97.45
2018-10-19T06:19:31.977Z,98.40
2018-10-19T06:20:29.846Z,98.30
2018-10-19T06:21:29.840Z,98.30
2018-10-19T06:22:29.684Z,97.55
2018-10-19T06:23:29.760Z,96.78
2018-10-19T06:24:30.576Z,96.69
2018-10-19T06:25:29.744Z,96.64
2018-10-19T06:26:34.319Z,97.12
2018-10-19T06:27:29.280Z,97.21
2018-10-19T06:28:29.277Z,98.54
2018-10-19T06:29:29.127Z,99.68
2018-10-19T06:30:29.077Z,99.99
2018-10-19T06:31:28.959Z,99.99
2018-10-19T06:32:28.990Z,99.99
2018-10-19T06:33:28.804Z,99.99
2018-10-19T06:34:28.797Z,99.99
2018-10-19T06:35:28.694Z,99.99
2018-10-19T06:36:28.607Z,99.99
2018-10-19T06:37:28.476Z,99.99
2018-10-19T06:38:28.409Z,99.99
2018-10-19T06:39:28.321Z,99.99
2018-10-19T06:40:28.240Z,99.99
2018-10-19T06:41:28.153Z,99.99
2018-10-19T06:42:28.087Z,99.99
2018-10-19T06:43:27.992Z,99.99
2018-10-19T06:44:27.940Z,99.99
2018-10-19T06:45:27.830Z,99.99
2018-10-19T06:46:27.799Z,99.99
2018-10-19T06:47:27.737Z,99.99
2018-10-19T06:48:27.596Z,99.99
2018-10-19T06:49:27.512Z,99.99
2018-10-19T06:50:27.474Z,99.99
2018-10-19T06:51:27.345Z,99.99
2018-10-19T06:52:27.281Z,99.99
2018-10-19T06:53:27.191Z,99.99
2018-10-19T06:54:27.120Z,99.99
2018-10-19T06:55:27.029Z,99.99
2018-10-19T06:56:26.955Z,99.99
2018-10-19T06:57:26.865Z,99.99
2018-10-19T06:58:26.792Z,99.99
2018-10-19T06:59:26.766Z,99.99
2018-10-19T07:00:26.643Z,99.99
2018-10-19T07:01:26.548Z,99.99
2018-10-19T07:02:26.471Z,99.99
2018-10-19T07:03:26.385Z,99.99
2018-10-19T07:04:26.310Z,99.99
2018-10-19T07:05:26.223Z,99.99
2018-10-19T07:06:26.151Z,99.99
2018-10-19T07:07:26.063Z,99.99
2018-10-19T07:08:26.092Z,99.99
2018-10-19T07:09:25.904Z,99.99
2018-10-19T07:10:25.828Z,99.99
2018-10-19T07:11:25.741Z,99.99
2018-10-19T07:12:25.674Z,99.99
2018-10-19T07:13:25.584Z,99.99
2018-10-19T07:14:25.525Z,99.99
2018-10-19T07:15:25.420Z,99.99
2018-10-19T07:16:25.351Z,99.99
2018-10-19T07:17:25.263Z,99.99
2018-10-19T07:18:25.189Z,99.99
2018-10-19T07:19:25.100Z,99.99
2018-10-19T07:20:25.031Z,99.99
2018-10-19T07:21:24.942Z,99.99
2018-10-19T07:22:24.867Z,99.99
2018-10-19T07:23:24.781Z,99.99
2018-10-19T07:24:24.709Z,99.99
2018-10-19T07:25:24.620Z,99.99
2018-10-19T07:26:24.548Z,99.99
2018-10-19T07:27:24.490Z,99.99
2018-10-19T07:28:24.381Z,99.99
2018-10-19T07:29:24.416Z,99.99
2018-10-19T07:30:24.220Z,99.99
2018-10-19T07:31:24.211Z,99.99
2018-10-19T07:32:24.059Z,99.99
2018-10-19T07:33:24.020Z,99.99
2018-10-19T07:34:23.904Z,99.99
2018-10-19T07:35:23.931Z,99.99
2018-10-19T07:36:23.846Z,99.99
2018-10-19T07:37:23.741Z,99.99
2018-10-19T07:38:23.586Z,99.99
2018-10-19T07:39:23.549Z,99.99
2018-10-19T07:40:23.424Z,99.99
2018-10-19T07:41:23.467Z,99.99
2018-10-19T07:42:23.410Z,99.99
2018-10-19T07:43:23.274Z,99.99
2018-10-19T07:44:23.108Z,99.99
2018-10-19T07:45:23.087Z,99.99
2018-10-19T07:46:22.948Z,99.99
2018-10-19T07:47:23.083Z,99.99
2018-10-19T07:48:22.843Z,99.99
2018-10-19T07:49:22.721Z,99.99
2018-10-19T07:50:22.634Z,99.99
2018-10-19T07:51:22.558Z,99.99
2018-10-19T07:52:22.471Z,99.99
2018-10-19T07:53:22.403Z,99.99
2018-10-19T07:54:22.363Z,99.99
2018-10-19T07:55:22.241Z,99.99
2018-10-19T07:56:22.157Z,99.99
2018-10-19T07:57:22.085Z,99.99
2018-10-19T07:58:21.999Z,99.99
2018-10-19T07:59:21.925Z,99.99
2018-10-19T08:00:21.907Z,99.99
2018-10-19T08:01:21.769Z,99.99
2018-10-19T08:02:21.683Z,99.99
2018-10-19T08:03:21.611Z,99.99
2018-10-19T08:04:21.524Z,99.99
2018-10-19T08:05:21.453Z,99.99
2018-10-19T08:06:21.368Z,99.99
2018-10-19T08:07:21.298Z,99.99
2018-10-19T08:08:21.214Z,99.99
2018-10-19T08:09:21.132Z,99.99
2018-10-19T08:10:21.052Z,99.99
2018-10-19T08:11:21.014Z,99.99
2018-10-19T08:12:20.896Z,99.99
2018-10-19T08:13:20.824Z,99.99
2018-10-19T08:14:20.744Z,99.99
2018-10-19T08:15:20.672Z,99.99
2018-10-19T08:16:20.588Z,99.99
2018-10-19T08:17:20.509Z,99.99
2018-10-19T08:18:20.428Z,99.57
2018-10-19T08:19:20.357Z,98.71
2018-10-19T08:20:20.275Z,98.13
2018-10-19T08:21:20.203Z,96.98
2018-10-19T08:22:20.118Z,97.13
2018-10-19T08:23:20.042Z,96.84
2018-10-19T08:24:19.957Z,96.66
2018-10-19T08:25:19.888Z,96.17
2018-10-19T08:26:19.799Z,96.46
2018-10-19T08:27:19.783Z,97.23
2018-10-19T08:28:19.651Z,96.51
2018-10-19T08:29:19.579Z,95.46
2018-10-19T08:30:19.496Z,94.70
2018-10-19T08:31:19.419Z,94.31
2018-10-19T08:32:19.339Z,93.84
2018-10-19T08:33:19.269Z,94.02
2018-10-19T08:34:19.180Z,93.74
2018-10-19T08:35:19.108Z,93.65
2018-10-19T08:36:19.024Z,93.50
2018-10-19T08:37:18.970Z,92.64
2018-10-19T08:38:18.876Z,91.59
2018-10-19T08:39:18.800Z,92.35
2018-10-19T08:40:18.718Z,91.20
2018-10-19T08:41:18.780Z,91.20
2018-10-19T08:42:18.560Z,92.45
2018-10-19T08:43:18.563Z,91.68
2018-10-19T08:44:18.409Z,90.63
2018-10-19T08:45:18.396Z,90.25
2018-10-19T08:46:18.257Z,90.39
2018-10-19T08:47:18.187Z,90.30
2018-10-19T08:48:18.096Z,88.48
2018-10-19T08:49:18.060Z,87.62
2018-10-19T08:50:17.948Z,87.81
2018-10-19T08:51:17.945Z,87.14
2018-10-19T08:52:17.796Z,86.76
2018-10-19T08:53:17.791Z,86.66
2018-10-19T08:54:17.646Z,86.04
2018-10-19T08:55:17.571Z,85.27
2018-10-19T08:56:17.486Z,85.08
2018-10-19T08:57:17.509Z,84.98
2018-10-19T08:58:17.369Z,85.13
2018-10-19T08:59:17.274Z,85.51
2018-10-19T09:00:17.294Z,85.13
2018-10-19T09:01:17.109Z,85.13
2018-10-19T09:02:17.029Z,85.27
2018-10-19T09:03:17.084Z,85.08
2018-10-19T09:04:16.915Z,85.17
2018-10-19T09:05:16.855Z,85.36
2018-10-19T09:06:16.846Z,84.12
2018-10-19T09:07:16.647Z,83.73
2018-10-19T09:08:16.566Z,84.59
2018-10-19T09:09:16.576Z,83.54
2018-10-19T09:10:16.412Z,84.31
2018-10-19T09:11:16.438Z,84.55
2018-10-19T09:12:16.257Z,83.97
2018-10-19T09:13:16.217Z,83.01
2018-10-19T09:14:16.107Z,83.93
2018-10-19T09:15:16.113Z,84.64
2018-10-19T09:16:15.952Z,84.16
2018-10-19T09:17:15.944Z,84.26
2018-10-19T09:18:15.813Z,84.26
2018-10-19T09:19:15.730Z,84.06
2018-10-19T09:20:15.647Z,83.11
2018-10-19T09:21:15.650Z,81.86
2018-10-19T09:22:15.505Z,82.06
2018-10-19T09:23:15.480Z,82.15
2018-10-19T09:24:15.353Z,82.34
2018-10-19T09:25:15.271Z,82.57
2018-10-19T09:26:15.200Z,82.48
2018-10-19T09:27:15.192Z,81.90
2018-10-19T09:28:15.051Z,81.81
2018-10-19T09:29:14.970Z,80.94
2018-10-19T09:30:14.897Z,79.89
2018-10-19T09:31:14.819Z,79.70
2018-10-19T09:32:14.745Z,80.94
2018-10-19T09:33:14.716Z,80.08
2018-10-19T09:34:14.602Z,81.04
2018-10-19T09:35:14.594Z,81.71
2018-10-19T09:36:14.550Z,81.13
2018-10-19T09:37:14.362Z,80.85
2018-10-19T09:38:14.296Z,79.51
2018-10-19T09:39:14.254Z,79.22
2018-10-19T09:40:14.173Z,79.41
2018-10-19T09:41:14.120Z,78.55
2018-10-19T09:42:14.073Z,78.84
2018-10-19T09:43:14.029Z,79.03
2018-10-19T09:44:13.845Z,78.93
2018-10-19T09:45:13.847Z,78.84
2018-10-19T09:46:13.695Z,77.88
2018-10-19T09:47:13.779Z,78.55
2018-10-19T09:48:13.547Z,78.97
2018-10-19T09:49:13.547Z,78.59
2018-10-19T09:50:13.391Z,77.92
2018-10-19T09:51:13.389Z,77.44
2018-10-19T09:52:13.251Z,77.82
2018-10-19T09:53:13.237Z,78.02
2018-10-19T09:54:13.095Z,77.44
2018-10-19T09:55:13.059Z,76.86
2018-10-19T09:56:12.969Z,76.39
2018-10-19T09:57:12.948Z,76.29
2018-10-19T09:58:12.799Z,75.52
2018-10-19T09:59:12.775Z,75.81
2018-10-19T10:00:12.647Z,76.39
2018-10-19T10:01:12.631Z,76.77
2018-10-19T10:02:12.598Z,76.90
2018-10-19T10:03:12.491Z,77.34
2018-10-19T10:04:12.343Z,76.04
2018-10-19T10:05:12.305Z,76.32
2018-10-19T10:06:12.194Z,76.42
2018-10-19T10:07:12.177Z,74.69
2018-10-19T10:08:12.045Z,75.08
2018-10-19T10:09:12.014Z,75.27
2018-10-19T10:10:11.893Z,75.37
2018-10-19T10:11:11.901Z,74.69
2018-10-19T10:12:11.746Z,74.93
2018-10-19T10:13:11.771Z,74.54
2018-10-19T10:14:11.596Z,73.87
2018-10-19T10:15:11.654Z,74.06
2018-10-19T10:16:11.446Z,74.35
2018-10-19T10:17:11.445Z,75.21
2018-10-19T10:18:11.297Z,73.65
2018-10-19T10:19:11.274Z,74.22
2018-10-19T10:20:11.151Z,75.08
2018-10-19T10:21:11.067Z,75.27
2018-10-19T10:22:11.083Z,75.18
2018-10-19T10:23:10.919Z,75.46
2018-10-19T10:24:10.850Z,75.27
2018-10-19T10:25:10.835Z,75.27
2018-10-19T10:26:10.699Z,74.60
2018-10-19T10:27:10.664Z,73.93
2018-10-19T10:28:10.642Z,74.60
2018-10-19T10:29:10.470Z,74.60
2018-10-19T10:30:10.409Z,75.95
2018-10-19T10:31:10.360Z,75.56
2018-10-19T10:32:10.323Z,75.27
2018-10-19T10:33:10.184Z,75.65
2018-10-19T10:34:10.178Z,74.89
2018-10-19T10:35:10.026Z,74.69
2018-10-19T10:36:09.958Z,74.79
2018-10-19T10:37:09.931Z,75.12
2018-10-19T10:38:09.812Z,75.40
2018-10-19T10:39:09.880Z,74.44
2018-10-19T10:40:09.695Z,75.21
2018-10-19T10:41:09.575Z,75.82
2018-10-19T10:42:09.515Z,74.96
2018-10-19T10:43:09.522Z,74.39
2018-10-19T10:44:09.359Z,72.79
2018-10-19T10:45:09.286Z,72.79
2018-10-19T10:46:09.344Z,72.79
2018-10-19T10:47:09.229Z,72.89
2018-10-19T10:48:09.101Z,72.25
2018-10-19T10:49:09.046Z,71.29
2018-10-19T10:50:08.923Z,71.96
2018-10-19T10:51:08.840Z,71.10
2018-10-19T10:52:08.838Z,71.77
2018-10-19T10:53:08.700Z,70.43
2018-10-19T10:54:08.629Z,70.90
2018-10-19T10:55:08.549Z,69.95
2018-10-19T10:56:08.533Z,71.33
2018-10-19T10:57:08.396Z,71.23
2018-10-19T10:58:08.412Z,70.07
2018-10-19T10:59:08.251Z,70.17
2018-10-19T11:00:08.254Z,69.12
2018-10-19T11:01:08.148Z,68.06
2018-10-19T11:02:08.066Z,68.83
2018-10-19T11:03:07.962Z,68.44
2018-10-19T11:04:08.043Z,69.02
2018-10-19T11:05:07.817Z,68.63
2018-10-19T11:06:07.780Z,68.54
2018-10-19T11:07:07.736Z,68.83
2018-10-19T11:08:07.692Z,70.27
2018-10-19T11:09:07.519Z,71.14
2018-10-19T11:10:07.513Z,67.96
2018-10-19T11:11:07.368Z,68.44
2018-10-19T11:12:07.414Z,68.25
2018-10-19T11:13:07.284Z,68.31
2018-10-19T11:14:07.225Z,68.21
2018-10-19T11:15:07.074Z,69.37
2018-10-19T11:16:08.089Z,68.89
2018-10-19T11:17:06.932Z,69.60
2018-10-19T11:18:07.863Z,69.21
2018-10-19T11:19:06.807Z,69.69
2018-10-19T11:20:08.723Z,69.31
2018-10-19T11:21:06.634Z,68.54
2018-10-19T11:22:06.706Z,68.19
2018-10-19T11:23:06.490Z,68.35
2018-10-19T11:24:07.574Z,66.36
2018-10-19T11:25:06.412Z,66.52
2018-10-19T11:26:06.383Z,66.84
2018-10-19T11:27:06.201Z,67.32
2018-10-19T11:28:06.253Z,67.61
2018-10-19T11:29:06.051Z,67.71
2018-10-19T11:30:06.005Z,66.74
2018-10-19T11:31:05.913Z,67.90
2018-10-19T11:32:05.910Z,67.07
2018-10-19T11:33:05.764Z,66.58
2018-10-19T11:34:05.749Z,66.10
2018-10-19T11:35:05.620Z,66.10
2018-10-19T11:36:05.628Z,65.63
2018-10-19T11:37:05.506Z,65.05
2018-10-19T11:38:05.565Z,66.10
2018-10-19T11:39:05.322Z,66.58
2018-10-19T11:40:05.404Z,65.53
2018-10-19T11:41:05.177Z,65.91
2018-10-19T11:42:05.115Z,65.91
2018-10-19T11:43:05.051Z,65.72
2018-10-19T11:44:04.969Z,65.33
2018-10-19T11:45:04.890Z,65.43
2018-10-19T11:46:04.917Z,65.81
2018-10-19T11:47:04.744Z,66.78
2018-10-19T11:48:04.789Z,65.63
2018-10-19T11:49:04.604Z,64.76
2018-10-19T11:50:04.596Z,64.89
2018-10-19T11:51:04.449Z,64.98
2018-10-19T11:52:04.460Z,64.98
2018-10-19T11:53:04.312Z,64.12
2018-10-19T11:54:04.319Z,63.64
2018-10-19T11:55:04.209Z,63.99
2018-10-19T11:56:04.126Z,64.08
2018-10-19T11:57:04.123Z,64.56
2018-10-19T11:58:04.063Z,64.66
2018-10-19T11:59:03.872Z,64.76
2018-10-19T12:00:03.841Z,64.28
2018-10-19T12:01:03.835Z,64.31
2018-10-19T12:02:03.754Z,65.08
2018-10-19T12:03:03.581Z,64.31
2018-10-19T12:04:03.606Z,64.50
2018-10-19T12:05:03.435Z,64.50
2018-10-19T12:06:03.372Z,63.54
2018-10-19T12:07:03.299Z,62.96
2018-10-19T12:08:03.301Z,63.25
2018-10-19T12:09:03.146Z,63.99
2018-10-19T12:10:03.141Z,63.99
2018-10-19T12:11:03.006Z,63.99
2018-10-19T12:12:03.000Z,64.76
2018-10-19T12:13:02.932Z,64.66
2018-10-19T12:14:02.791Z,64.69
2018-10-19T12:15:02.785Z,63.70
2018-10-19T12:16:02.784Z,64.28
2018-10-19T12:17:02.744Z,64.21
2018-10-19T12:18:02.501Z,64.59
2018-10-19T12:19:02.481Z,64.40
2018-10-19T12:20:02.442Z,62.48
2018-10-19T12:21:02.382Z,63.64
2018-10-19T12:22:02.222Z,64.69
2018-10-19T12:23:02.134Z,65.08
2018-10-19T12:24:02.160Z,64.40
2018-10-19T12:25:02.137Z,63.64
2018-10-19T12:26:02.001Z,63.64
2018-10-19T12:27:01.905Z,62.96
2018-10-19T12:28:01.881Z,62.70
2018-10-19T12:29:01.704Z,62.80
2018-10-19T12:30:01.693Z,62.80
2018-10-19T12:31:01.586Z,61.35
2018-10-19T12:32:01.605Z,61.55
2018-10-19T12:33:01.438Z,62.12
2018-10-19T12:34:01.408Z,61.93
2018-10-19T12:35:01.272Z,61.65
2018-10-19T12:36:01.216Z,62.03
2018-10-19T12:37:01.163Z,61.35
2018-10-19T12:38:01.130Z,61.55
2018-10-19T12:39:00.990Z,61.65
2018-10-19T12:40:00.920Z,60.68
2018-10-19T12:41:00.888Z,61.25
2018-10-19T12:42:00.854Z,62.12
2018-10-19T12:43:00.704Z,62.51
2018-10-19T12:44:00.657Z,64.53
2018-10-19T12:45:00.722Z,66.55
2018-10-19T12:46:00.565Z,63.67
2018-10-19T12:47:00.404Z,63.18
2018-10-19T12:48:00.414Z,65.01
2018-10-19T12:49:00.267Z,65.50
2018-10-19T12:50:00.337Z,66.27
2018-10-19T12:51:00.124Z,68.00